Creek Data

    Home     View Charts     View Raw Data     Messages

ID Distance Battery Voltage Battery Current Internal Temp Internal Humidity External Temp Solar Input rssi snr Time Stamp Record
33937 14.9 3.99 6 42 35 48 5.1 -78 7 03/03/2025 08:00 AM 15641
33936 14.8 3.98 0 41 35 48 5.1 -77 7 03/03/2025 07:45 AM 15640
33935 14.8 4.07 48 38 35 45 4.5 -77 8 03/03/2025 07:30 AM 15639
33934 14.8 4.04 50 36 36 43 4.5 -78 7 03/03/2025 07:15 AM 15638
33933 14.8 4.01 0 33 37 37 4.5 -78 8 03/03/2025 07:00 AM 15637
33932 14.8 3.91 0 32 38 34 4.5 -77 8 03/03/2025 06:45 AM 15636
33931 14.8 3.95 -9 32 38 34 3.7 -78 7 03/03/2025 06:30 AM 15635
33930 14.8 3.90 -5 33 38 35 0.2 -78 8 03/03/2025 06:15 AM 15634
33929 14.8 3.96 -5 32 38 34 0 -77 8 03/03/2025 06:00 AM 15633
33928 14.8 3.96 -5 33 38 34 0 -77 8 03/03/2025 05:45 AM 15632
33927 14.8 3.90 -5 33 38 35 0 -78 8 03/03/2025 05:30 AM 15631
33926 14.8 3.90 -5 33 38 35 0.1 -79 9 03/03/2025 05:15 AM 15630
33925 14.7 3.91 -5 33 38 35 0 -77 8 03/03/2025 05:00 AM 15629
33924 14.7 3.91 -5 33 39 35 0 -78 7 03/03/2025 04:45 AM 15628
33923 14.7 3.91 -5 33 39 35 0.1 -78 7 03/03/2025 04:30 AM 15627
33922 14.8 3.91 -5 34 39 34 0 -78 9 03/03/2025 04:15 AM 15626
33921 14.7 3.91 -5 35 39 36 0 -78 8 03/03/2025 04:00 AM 15625
33920 14.8 3.91 -5 35 39 36 0 -77 9 03/03/2025 03:45 AM 15624
33919 14.7 3.97 -5 36 39 35 0 -77 8 03/03/2025 03:30 AM 15623
33918 14.7 3.91 -5 38 38 39 0 -78 7 03/03/2025 03:15 AM 15622
33917 14.8 3.91 -5 39 38 39 0 -78 8 03/03/2025 03:00 AM 15621
33916 14.7 3.97 -5 40 37 42 0 -77 8 03/03/2025 02:45 AM 15620
33915 14.7 3.92 -5 40 37 42 0.1 -78 8 03/03/2025 02:30 AM 15619
33914 14.7 3.92 -5 40 38 42 0 -78 8 03/03/2025 02:15 AM 15618
33913 14.7 3.92 -5 39 38 42 0.1 -77 8 03/03/2025 02:00 AM 15617